sensor_id;sensor_type;location;lat;lon;timestamp;P1;durP1;ratioP1;P2;durP2;ratioP2
1220;SDS011;600;48.044;7.878;2022-11-15T05:04:32;4.43;;;4.03;;
1220;SDS011;600;48.044;7.878;2022-11-15T05:06:59;3.50;;;3.20;;
1220;SDS011;600;48.044;7.878;2022-11-15T05:09:25;3.30;;;3.00;;
1220;SDS011;600;48.044;7.878;2022-11-15T05:11:52;4.93;;;3.70;;
1220;SDS011;600;48.044;7.878;2022-11-15T05:14:19;5.63;;;3.23;;
1220;SDS011;600;48.044;7.878;2022-11-15T05:16:46;4.13;;;3.20;;
1220;SDS011;600;48.044;7.878;2022-11-15T05:19:12;3.10;;;2.80;;
1220;SDS011;600;48.044;7.878;2022-11-15T05:21:41;3.83;;;3.43;;
1220;SDS011;600;48.044;7.878;2022-11-15T05:24:08;5.03;;;3.10;;
1220;SDS011;600;48.044;7.878;2022-11-15T05:26:36;3.00;;;2.80;;
1220;SDS011;600;48.044;7.878;2022-11-15T05:29:02;3.00;;;2.80;;
1220;SDS011;600;48.044;7.878;2022-11-15T05:31:29;3.43;;;3.13;;
1220;SDS011;600;48.044;7.878;2022-11-15T05:33:56;3.83;;;3.47;;
1220;SDS011;600;48.044;7.878;2022-11-15T05:36:31;4.10;;;3.70;;
1220;SDS011;600;48.044;7.878;2022-11-15T05:39:04;4.83;;;3.43;;
1220;SDS011;600;48.044;7.878;2022-11-15T05:41:32;4.27;;;3.00;;
1220;SDS011;600;48.044;7.878;2022-11-15T05:44:02;5.40;;;5.00;;
1220;SDS011;600;48.044;7.878;2022-11-15T05:46:31;6.23;;;5.63;;
1220;SDS011;600;48.044;7.878;2022-11-15T05:48:59;6.63;;;6.00;;
1220;SDS011;600;48.044;7.878;2022-11-15T05:51:26;8.67;;;7.87;;
1220;SDS011;600;48.044;7.878;2022-11-15T05:53:55;9.17;;;8.37;;
1220;SDS011;600;48.044;7.878;2022-11-15T05:56:25;9.50;;;8.70;;
1220;SDS011;600;48.044;7.878;2022-11-15T05:58:52;9.53;;;8.53;;
1220;SDS011;600;48.044;7.878;2022-11-15T06:01:21;9.30;;;8.37;;
1220;SDS011;600;48.044;7.878;2022-11-15T06:03:48;8.40;;;7.60;;
1220;SDS011;600;48.044;7.878;2022-11-15T06:06:15;9.17;;;8.37;;
1220;SDS011;600;48.044;7.878;2022-11-15T13:39:25;1.70;;;1.60;;
1220;SDS011;600;48.044;7.878;2022-11-15T13:41:53;1.87;;;1.77;;
1220;SDS011;600;48.044;7.878;2022-11-15T13:44:21;1.50;;;1.40;;
1220;SDS011;600;48.044;7.878;2022-11-15T13:46:52;1.37;;;1.27;;
1220;SDS011;600;48.044;7.878;2022-11-15T13:49:29;1.20;;;1.20;;
1220;SDS011;600;48.044;7.878;2022-11-15T13:51:56;1.37;;;1.27;;
1220;SDS011;600;48.044;7.878;2022-11-15T13:54:25;1.30;;;1.30;;
1220;SDS011;600;48.044;7.878;2022-11-15T13:56:56;0.93;;;0.93;;
1220;SDS011;600;48.044;7.878;2022-11-15T13:59:27;1.10;;;1.00;;
1220;SDS011;600;48.044;7.878;2022-11-15T14:01:56;0.90;;;0.90;;
1220;SDS011;600;48.044;7.878;2022-11-15T14:04:26;1.20;;;1.10;;
1220;SDS011;600;48.044;7.878;2022-11-15T14:06:58;4.23;;;1.40;;
1220;SDS011;600;48.044;7.878;2022-11-15T14:09:33;1.30;;;1.20;;
1220;SDS011;600;48.044;7.878;2022-11-15T14:12:02;1.10;;;1.10;;
1220;SDS011;600;48.044;7.878;2022-11-15T14:14:45;2.53;;;2.27;;
1220;SDS011;600;48.044;7.878;2022-11-15T14:17:18;6.10;;;4.90;;
1220;SDS011;600;48.044;7.878;2022-11-15T14:19:48;6.87;;;5.23;;
1220;SDS011;600;48.044;7.878;2022-11-15T14:22:17;6.70;;;5.40;;
1220;SDS011;600;48.044;7.878;2022-11-15T14:25:03;6.07;;;5.13;;
1220;SDS011;600;48.044;7.878;2022-11-15T14:29:56;5.37;;;4.87;;
1220;SDS011;600;48.044;7.878;2022-11-15T14:32:23;5.43;;;4.60;;
1220;SDS011;600;48.044;7.878;2022-11-15T14:34:53;6.70;;;5.70;;
1220;SDS011;600;48.044;7.878;2022-11-15T14:37:22;5.30;;;4.80;;
1220;SDS011;600;48.044;7.878;2022-11-15T14:39:50;5.00;;;4.60;;
1220;SDS011;600;48.044;7.878;2022-11-15T14:42:18;5.60;;;5.00;;
1220;SDS011;600;48.044;7.878;2022-11-15T14:44:45;4.97;;;4.57;;
1220;SDS011;600;48.044;7.878;2022-11-15T14:47:13;5.63;;;5.13;;
1220;SDS011;600;48.044;7.878;2022-11-15T14:49:40;6.10;;;4.90;;
1220;SDS011;600;48.044;7.878;2022-11-15T14:52:11;5.17;;;4.67;;
1220;SDS011;600;48.044;7.878;2022-11-15T14:54:51;5.03;;;4.53;;
1220;SDS011;600;48.044;7.878;2022-11-15T14:57:18;5.07;;;4.07;;
1220;SDS011;600;48.044;7.878;2022-11-15T14:59:44;4.77;;;4.27;;
1220;SDS011;600;48.044;7.878;2022-11-15T15:02:16;4.37;;;3.97;;
1220;SDS011;600;48.044;7.878;2022-11-15T15:04:44;4.67;;;4.27;;
1220;SDS011;600;48.044;7.878;2022-11-15T15:07:12;4.30;;;3.90;;
1220;SDS011;600;48.044;7.878;2022-11-15T15:09:38;4.40;;;4.10;;
1220;SDS011;600;48.044;7.878;2022-11-15T15:12:09;4.90;;;4.30;;
1220;SDS011;600;48.044;7.878;2022-11-15T15:14:41;6.27;;;4.80;;
1220;SDS011;600;48.044;7.878;2022-11-15T15:17:08;5.07;;;4.67;;
1220;SDS011;600;48.044;7.878;2022-11-15T15:19:36;9.90;;;7.50;;
1220;SDS011;600;48.044;7.878;2022-11-15T15:22:03;8.83;;;7.93;;
1220;SDS011;600;48.044;7.878;2022-11-15T15:24:30;7.20;;;6.60;;
1220;SDS011;600;48.044;7.878;2022-11-15T15:26:57;7.53;;;6.83;;
1220;SDS011;600;48.044;7.878;2022-11-15T15:29:24;7.40;;;6.60;;
1220;SDS011;600;48.044;7.878;2022-11-15T15:31:50;8.83;;;7.00;;
1220;SDS011;600;48.044;7.878;2022-11-15T15:34:17;7.37;;;6.70;;
1220;SDS011;600;48.044;7.878;2022-11-15T15:36:45;8.47;;;7.67;;
1220;SDS011;600;48.044;7.878;2022-11-15T15:39:12;9.40;;;8.43;;
1220;SDS011;600;48.044;7.878;2022-11-15T15:41:39;8.90;;;8.07;;
1220;SDS011;600;48.044;7.878;2022-11-15T15:44:05;9.47;;;8.50;;
1220;SDS011;600;48.044;7.878;2022-11-15T15:46:32;9.70;;;8.70;;
1220;SDS011;600;48.044;7.878;2022-11-15T15:49:00;9.70;;;8.80;;
1220;SDS011;600;48.044;7.878;2022-11-15T15:51:27;10.23;;;9.33;;
1220;SDS011;600;48.044;7.878;2022-11-15T15:53:55;10.73;;;9.70;;
1220;SDS011;600;48.044;7.878;2022-11-15T15:56:23;13.93;;;11.00;;
1220;SDS011;600;48.044;7.878;2022-11-15T15:58:49;10.10;;;9.10;;
1220;SDS011;600;48.044;7.878;2022-11-15T16:01:17;9.80;;;8.90;;
1220;SDS011;600;48.044;7.878;2022-11-15T16:03:44;9.87;;;8.83;;
1220;SDS011;600;48.044;7.878;2022-11-15T16:09:01;9.10;;;8.30;;
1220;SDS011;600;48.044;7.878;2022-11-15T16:11:28;8.53;;;7.73;;
1220;SDS011;600;48.044;7.878;2022-11-15T16:13:54;8.30;;;7.50;;
1220;SDS011;600;48.044;7.878;2022-11-15T16:16:21;7.63;;;6.93;;
1220;SDS011;600;48.044;7.878;2022-11-15T16:18:48;7.37;;;6.60;;
1220;SDS011;600;48.044;7.878;2022-11-15T16:21:15;7.77;;;7.13;;
1220;SDS011;600;48.044;7.878;2022-11-15T16:23:42;6.97;;;6.27;;
1220;SDS011;600;48.044;7.878;2022-11-15T16:26:13;6.17;;;5.67;;
1220;SDS011;600;48.044;7.878;2022-11-15T16:28:45;7.37;;;6.67;;
1220;SDS011;600;48.044;7.878;2022-11-15T16:31:12;7.23;;;6.53;;
1220;SDS011;600;48.044;7.878;2022-11-15T16:33:39;7.43;;;6.73;;
1220;SDS011;600;48.044;7.878;2022-11-15T16:36:12;7.77;;;6.97;;
1220;SDS011;600;48.044;7.878;2022-11-15T16:38:44;7.73;;;6.97;;
1220;SDS011;600;48.044;7.878;2022-11-15T16:41:12;9.50;;;7.30;;
1220;SDS011;600;48.044;7.878;2022-11-15T16:43:40;7.30;;;6.60;;
1220;SDS011;600;48.044;7.878;2022-11-15T16:46:08;9.50;;;6.97;;
1220;SDS011;600;48.044;7.878;2022-11-15T16:48:40;8.43;;;7.30;;
1220;SDS011;600;48.044;7.878;2022-11-15T16:51:06;8.37;;;7.07;;
1220;SDS011;600;48.044;7.878;2022-11-15T16:53:34;7.77;;;6.97;;
1220;SDS011;600;48.044;7.878;2022-11-15T16:56:01;9.10;;;8.30;;
1220;SDS011;600;48.044;7.878;2022-11-15T16:58:30;10.47;;;9.47;;
1220;SDS011;600;48.044;7.878;2022-11-15T17:00:57;12.40;;;11.20;;
1220;SDS011;600;48.044;7.878;2022-11-15T17:03:24;11.80;;;10.70;;
1220;SDS011;600;48.044;7.878;2022-11-15T17:05:51;12.40;;;11.20;;
1220;SDS011;600;48.044;7.878;2022-11-15T17:08:18;12.93;;;11.70;;
1220;SDS011;600;48.044;7.878;2022-11-15T17:10:45;13.60;;;12.30;;
1220;SDS011;600;48.044;7.878;2022-11-15T17:13:12;14.00;;;12.60;;
1220;SDS011;600;48.044;7.878;2022-11-15T17:15:40;13.60;;;12.20;;
1220;SDS011;600;48.044;7.878;2022-11-15T17:18:09;14.53;;;13.17;;
1220;SDS011;600;48.044;7.878;2022-11-15T17:20:37;12.20;;;11.10;;
1220;SDS011;600;48.044;7.878;2022-11-15T17:23:05;11.70;;;10.50;;
1220;SDS011;600;48.044;7.878;2022-11-15T17:25:36;12.10;;;10.97;;
1220;SDS011;600;48.044;7.878;2022-11-15T17:28:02;11.77;;;10.53;;
1220;SDS011;600;48.044;7.878;2022-11-15T17:30:30;11.70;;;10.60;;
1220;SDS011;600;48.044;7.878;2022-11-15T17:32:58;13.97;;;10.80;;
1220;SDS011;600;48.044;7.878;2022-11-15T17:35:26;12.37;;;9.40;;
1220;SDS011;600;48.044;7.878;2022-11-15T17:37:52;9.40;;;8.60;;
1220;SDS011;600;48.044;7.878;2022-11-15T17:40:19;8.57;;;7.87;;
1220;SDS011;600;48.044;7.878;2022-11-15T17:42:46;9.30;;;8.40;;
1220;SDS011;600;48.044;7.878;2022-11-15T17:45:13;8.40;;;7.70;;
1220;SDS011;600;48.044;7.878;2022-11-15T17:47:40;9.63;;;8.73;;
1220;SDS011;600;48.044;7.878;2022-11-15T17:50:08;9.57;;;8.70;;
1220;SDS011;600;48.044;7.878;2022-11-15T17:52:35;10.60;;;9.70;;
1220;SDS011;600;48.044;7.878;2022-11-15T17:55:02;10.73;;;9.83;;
1220;SDS011;600;48.044;7.878;2022-11-15T17:57:29;12.00;;;10.90;;
1220;SDS011;600;48.044;7.878;2022-11-15T17:59:56;11.93;;;10.93;;
1220;SDS011;600;48.044;7.878;2022-11-15T18:02:22;12.37;;;11.20;;
1220;SDS011;600;48.044;7.878;2022-11-15T18:04:49;10.83;;;9.83;;
1220;SDS011;600;48.044;7.878;2022-11-15T18:07:17;11.93;;;10.83;;
1220;SDS011;600;48.044;7.878;2022-11-15T18:09:44;11.43;;;10.43;;
1220;SDS011;600;48.044;7.878;2022-11-15T18:12:11;11.20;;;10.10;;
1220;SDS011;600;48.044;7.878;2022-11-15T18:14:37;10.40;;;9.43;;
1220;SDS011;600;48.044;7.878;2022-11-15T18:17:04;12.73;;;11.40;;
1220;SDS011;600;48.044;7.878;2022-11-15T18:19:31;12.00;;;11.03;;
1220;SDS011;600;48.044;7.878;2022-11-15T18:21:58;13.67;;;12.37;;
1220;SDS011;600;48.044;7.878;2022-11-15T18:24:27;12.50;;;11.33;;
1220;SDS011;600;48.044;7.878;2022-11-15T18:26:55;13.07;;;11.77;;
1220;SDS011;600;48.044;7.878;2022-11-15T18:29:22;14.37;;;12.97;;
1220;SDS011;600;48.044;7.878;2022-11-15T18:31:49;14.63;;;13.13;;
1220;SDS011;600;48.044;7.878;2022-11-15T18:34:19;13.57;;;12.10;;
1220;SDS011;600;48.044;7.878;2022-11-15T18:36:48;15.10;;;12.00;;
1220;SDS011;600;48.044;7.878;2022-11-15T18:39:15;13.03;;;11.90;;
1220;SDS011;600;48.044;7.878;2022-11-15T18:41:43;11.47;;;10.03;;
1220;SDS011;600;48.044;7.878;2022-11-15T18:44:11;11.70;;;10.50;;
1220;SDS011;600;48.044;7.878;2022-11-15T18:46:38;11.77;;;10.77;;
1220;SDS011;600;48.044;7.878;2022-11-15T18:49:07;10.23;;;9.23;;
1220;SDS011;600;48.044;7.878;2022-11-15T18:51:36;11.23;;;9.27;;
1220;SDS011;600;48.044;7.878;2022-11-15T18:54:05;10.90;;;9.77;;
1220;SDS011;600;48.044;7.878;2022-11-15T18:56:33;8.53;;;7.70;;
1220;SDS011;600;48.044;7.878;2022-11-15T18:59:02;8.53;;;7.83;;
1220;SDS011;600;48.044;7.878;2022-11-15T19:01:29;8.83;;;7.93;;
1220;SDS011;600;48.044;7.878;2022-11-15T19:04:01;8.80;;;7.90;;
1220;SDS011;600;48.044;7.878;2022-11-15T19:06:29;9.03;;;8.23;;
1220;SDS011;600;48.044;7.878;2022-11-15T19:08:57;8.93;;;8.13;;
1220;SDS011;600;48.044;7.878;2022-11-15T19:11:25;8.83;;;7.93;;
1220;SDS011;600;48.044;7.878;2022-11-15T19:13:53;7.63;;;7.03;;
1220;SDS011;600;48.044;7.878;2022-11-15T19:16:22;8.87;;;7.83;;
1220;SDS011;600;48.044;7.878;2022-11-15T19:18:51;8.37;;;7.10;;
1220;SDS011;600;48.044;7.878;2022-11-15T19:21:19;7.90;;;7.10;;
1220;SDS011;600;48.044;7.878;2022-11-15T19:23:46;8.50;;;7.70;;
1220;SDS011;600;48.044;7.878;2022-11-15T19:26:13;8.97;;;8.07;;
1220;SDS011;600;48.044;7.878;2022-11-15T19:28:41;8.93;;;8.10;;
1220;SDS011;600;48.044;7.878;2022-11-15T19:31:09;8.30;;;7.50;;
1220;SDS011;600;48.044;7.878;2022-11-15T19:33:39;7.03;;;6.33;;
1220;SDS011;600;48.044;7.878;2022-11-15T19:36:07;9.00;;;7.50;;
1220;SDS011;600;48.044;7.878;2022-11-15T19:38:36;10.20;;;7.17;;
1220;SDS011;600;48.044;7.878;2022-11-15T19:41:04;9.13;;;7.60;;
1220;SDS011;600;48.044;7.878;2022-11-15T19:43:32;8.50;;;7.40;;
1220;SDS011;600;48.044;7.878;2022-11-15T19:45:59;8.80;;;7.87;;
1220;SDS011;600;48.044;7.878;2022-11-15T19:48:28;10.50;;;7.90;;
1220;SDS011;600;48.044;7.878;2022-11-15T19:50:59;10.60;;;7.23;;
1220;SDS011;600;48.044;7.878;2022-11-15T19:53:27;7.63;;;6.93;;
1220;SDS011;600;48.044;7.878;2022-11-15T19:55:54;11.33;;;8.67;;
1220;SDS011;600;48.044;7.878;2022-11-15T19:58:22;9.27;;;8.40;;
1220;SDS011;600;48.044;7.878;2022-11-15T20:00:49;9.43;;;8.63;;
1220;SDS011;600;48.044;7.878;2022-11-15T20:03:16;9.80;;;8.90;;
1220;SDS011;600;48.044;7.878;2022-11-15T20:05:43;8.23;;;7.53;;
1220;SDS011;600;48.044;7.878;2022-11-15T20:08:11;11.03;;;8.80;;
1220;SDS011;600;48.044;7.878;2022-11-15T20:10:38;9.23;;;8.43;;
1220;SDS011;600;48.044;7.878;2022-11-15T20:13:04;9.40;;;8.60;;
1220;SDS011;600;48.044;7.878;2022-11-15T20:15:31;9.80;;;8.80;;
1220;SDS011;600;48.044;7.878;2022-11-15T20:17:58;9.57;;;7.70;;
1220;SDS011;600;48.044;7.878;2022-11-15T20:20:25;8.87;;;8.10;;
1220;SDS011;600;48.044;7.878;2022-11-15T20:22:51;8.93;;;7.60;;
1220;SDS011;600;48.044;7.878;2022-11-15T20:25:19;7.97;;;7.23;;
1220;SDS011;600;48.044;7.878;2022-11-15T20:27:46;9.13;;;8.30;;
1220;SDS011;600;48.044;7.878;2022-11-15T20:30:13;10.20;;;9.23;;
1220;SDS011;600;48.044;7.878;2022-11-15T20:32:40;10.70;;;9.70;;
1220;SDS011;600;48.044;7.878;2022-11-15T20:35:07;10.63;;;9.53;;
1220;SDS011;600;48.044;7.878;2022-11-15T20:37:34;8.97;;;8.17;;
1220;SDS011;600;48.044;7.878;2022-11-15T20:40:01;8.40;;;7.63;;
1220;SDS011;600;48.044;7.878;2022-11-15T20:42:29;8.80;;;7.90;;
1220;SDS011;600;48.044;7.878;2022-11-15T20:44:56;7.70;;;7.00;;
1220;SDS011;600;48.044;7.878;2022-11-15T20:47:23;8.10;;;7.30;;
1220;SDS011;600;48.044;7.878;2022-11-15T20:49:49;7.93;;;7.20;;
1220;SDS011;600;48.044;7.878;2022-11-15T20:52:18;8.03;;;7.33;;
1220;SDS011;600;48.044;7.878;2022-11-15T20:54:45;8.27;;;7.47;;
1220;SDS011;600;48.044;7.878;2022-11-15T20:57:12;9.97;;;8.10;;
1220;SDS011;600;48.044;7.878;2022-11-15T20:59:40;7.50;;;6.80;;
1220;SDS011;600;48.044;7.878;2022-11-15T21:02:08;7.60;;;6.83;;
1220;SDS011;600;48.044;7.878;2022-11-15T21:04:37;8.03;;;7.33;;
1220;SDS011;600;48.044;7.878;2022-11-15T21:07:04;8.77;;;7.97;;
1220;SDS011;600;48.044;7.878;2022-11-15T21:09:31;7.20;;;6.60;;
1220;SDS011;600;48.044;7.878;2022-11-15T21:12:16;5.70;;;5.10;;
1220;SDS011;600;48.044;7.878;2022-11-15T21:14:44;3.80;;;3.50;;
1220;SDS011;600;48.044;7.878;2022-11-15T21:17:13;4.67;;;3.50;;
1220;SDS011;600;48.044;7.878;2022-11-15T21:19:40;3.70;;;3.40;;
1220;SDS011;600;48.044;7.878;2022-11-15T21:22:08;3.80;;;3.50;;
1220;SDS011;600;48.044;7.878;2022-11-15T21:24:37;4.17;;;3.77;;
1220;SDS011;600;48.044;7.878;2022-11-15T21:27:03;6.00;;;5.50;;
1220;SDS011;600;48.044;7.878;2022-11-15T21:29:30;5.63;;;4.53;;
1220;SDS011;600;48.044;7.878;2022-11-15T21:32:05;6.20;;;5.53;;
1220;SDS011;600;48.044;7.878;2022-11-15T21:34:33;5.70;;;5.20;;
1220;SDS011;600;48.044;7.878;2022-11-15T21:37:00;4.20;;;3.80;;
1220;SDS011;600;48.044;7.878;2022-11-15T21:39:27;3.70;;;3.10;;
1220;SDS011;600;48.044;7.878;2022-11-15T21:41:54;3.13;;;2.93;;
1220;SDS011;600;48.044;7.878;2022-11-15T21:44:21;3.00;;;2.70;;
1220;SDS011;600;48.044;7.878;2022-11-15T21:46:48;6.57;;;3.70;;
1220;SDS011;600;48.044;7.878;2022-11-15T21:49:16;3.90;;;3.60;;
1220;SDS011;600;48.044;7.878;2022-11-15T21:51:44;5.27;;;4.70;;
1220;SDS011;600;48.044;7.878;2022-11-15T21:54:11;6.87;;;4.67;;
1220;SDS011;600;48.044;7.878;2022-11-15T21:56:38;5.77;;;5.13;;
1220;SDS011;600;48.044;7.878;2022-11-15T21:59:05;5.43;;;4.90;;
1220;SDS011;600;48.044;7.878;2022-11-15T22:01:32;4.23;;;3.83;;
1220;SDS011;600;48.044;7.878;2022-11-15T22:04:18;4.20;;;3.83;;
1220;SDS011;600;48.044;7.878;2022-11-15T22:06:45;4.40;;;4.00;;
1220;SDS011;600;48.044;7.878;2022-11-15T22:09:12;4.03;;;3.70;;
1220;SDS011;600;48.044;7.878;2022-11-15T22:11:39;5.00;;;4.30;;
1220;SDS011;600;48.044;7.878;2022-11-15T22:14:06;6.27;;;5.67;;
1220;SDS011;600;48.044;7.878;2022-11-15T22:16:32;6.87;;;6.17;;
1220;SDS011;600;48.044;7.878;2022-11-15T22:18:59;11.30;;;8.60;;
1220;SDS011;600;48.044;7.878;2022-11-15T22:21:28;23.03;;;16.53;;
1220;SDS011;600;48.044;7.878;2022-11-15T22:23:54;31.40;;;23.57;;
1220;SDS011;600;48.044;7.878;2022-11-15T22:26:21;28.07;;;22.50;;
1220;SDS011;600;48.044;7.878;2022-11-15T22:28:48;27.10;;;20.30;;
1220;SDS011;600;48.044;7.878;2022-11-15T22:31:15;33.00;;;25.20;;
1220;SDS011;600;48.044;7.878;2022-11-15T22:33:42;39.60;;;31.20;;
1220;SDS011;600;48.044;7.878;2022-11-15T22:36:09;30.47;;;25.80;;
1220;SDS011;600;48.044;7.878;2022-11-15T22:38:38;18.50;;;15.00;;
1220;SDS011;600;48.044;7.878;2022-11-15T22:41:05;14.27;;;12.83;;
1220;SDS011;600;48.044;7.878;2022-11-15T22:43:32;17.97;;;14.40;;
1220;SDS011;600;48.044;7.878;2022-11-15T22:45:59;15.60;;;14.00;;
1220;SDS011;600;48.044;7.878;2022-11-15T22:48:28;14.20;;;12.37;;
1220;SDS011;600;48.044;7.878;2022-11-15T22:50:56;11.90;;;10.67;;
1220;SDS011;600;48.044;7.878;2022-11-15T22:53:24;11.80;;;10.63;;
1220;SDS011;600;48.044;7.878;2022-11-15T22:55:53;9.37;;;8.30;;
1220;SDS011;600;48.044;7.878;2022-11-15T22:58:21;9.00;;;8.10;;
1220;SDS011;600;48.044;7.878;2022-11-15T23:00:51;7.20;;;6.43;;
1220;SDS011;600;48.044;7.878;2022-11-15T23:03:19;6.17;;;5.20;;
1220;SDS011;600;48.044;7.878;2022-11-15T23:05:46;4.87;;;4.47;;
1220;SDS011;600;48.044;7.878;2022-11-15T23:08:14;5.60;;;5.10;;
1220;SDS011;600;48.044;7.878;2022-11-15T23:10:41;5.00;;;4.60;;
1220;SDS011;600;48.044;7.878;2022-11-15T23:13:27;4.97;;;4.50;;
1220;SDS011;600;48.044;7.878;2022-11-15T23:15:59;2.93;;;2.63;;
1220;SDS011;600;48.044;7.878;2022-11-15T23:18:45;1.70;;;1.60;;
1220;SDS011;600;48.044;7.878;2022-11-15T23:21:12;2.33;;;1.77;;
1220;SDS011;600;48.044;7.878;2022-11-15T23:24:00;4.33;;;3.93;;
1220;SDS011;600;48.044;7.878;2022-11-15T23:26:26;5.43;;;4.90;;
1220;SDS011;600;48.044;7.878;2022-11-15T23:28:54;5.87;;;5.37;;
1220;SDS011;600;48.044;7.878;2022-11-15T23:31:21;5.23;;;4.83;;
1220;SDS011;600;48.044;7.878;2022-11-15T23:34:06;6.40;;;5.80;;
1220;SDS011;600;48.044;7.878;2022-11-15T23:36:32;7.63;;;6.97;;
1220;SDS011;600;48.044;7.878;2022-11-15T23:38:59;11.20;;;10.03;;
1220;SDS011;600;48.044;7.878;2022-11-15T23:41:27;9.27;;;8.30;;
1220;SDS011;600;48.044;7.878;2022-11-15T23:43:55;8.03;;;6.73;;
1220;SDS011;600;48.044;7.878;2022-11-15T23:46:22;8.30;;;6.07;;
1220;SDS011;600;48.044;7.878;2022-11-15T23:48:48;7.67;;;5.53;;
1220;SDS011;600;48.044;7.878;2022-11-15T23:51:15;5.53;;;4.90;;
1220;SDS011;600;48.044;7.878;2022-11-15T23:53:42;4.27;;;3.87;;
1220;SDS011;600;48.044;7.878;2022-11-15T23:56:09;5.97;;;3.47;;
1220;SDS011;600;48.044;7.878;2022-11-15T23:58:37;4.67;;;4.23;;
